createdAt,value
2023-03-06T00:01:08.361Z,7.80
2023-03-06T00:03:36.606Z,8.20
2023-03-06T00:06:04.858Z,6.80
2023-03-06T00:08:32.927Z,8.00
2023-03-06T00:11:01.364Z,6.40
2023-03-06T00:13:33.651Z,6.20
2023-03-06T00:16:02.931Z,9.10
2023-03-06T00:18:33.436Z,8.30
2023-03-06T00:21:01.454Z,8.80
2023-03-06T00:23:29.775Z,10.10
2023-03-06T00:28:26.629Z,9.10
2023-03-06T00:30:54.621Z,7.90
2023-03-06T00:35:50.418Z,6.90
2023-03-06T00:38:18.488Z,8.60
2023-03-06T00:43:14.301Z,7.50
2023-03-06T00:45:43.132Z,6.30
2023-03-06T00:50:38.986Z,4.80
2023-03-06T00:53:07.167Z,8.20
2023-03-06T00:55:36.005Z,5.00
2023-03-06T00:58:08.067Z,4.50
2023-03-06T01:00:36.462Z,7.70
2023-03-06T01:03:04.846Z,6.00
2023-03-06T01:05:35.673Z,6.80
2023-03-06T01:08:05.834Z,4.70
2023-03-06T01:10:38.312Z,7.50
2023-03-06T01:13:06.542Z,4.80
2023-03-06T01:15:34.617Z,6.10
2023-03-06T01:18:03.857Z,4.10
2023-03-06T01:20:32.347Z,5.70
2023-03-06T01:23:01.108Z,6.40
2023-03-06T01:25:29.984Z,3.80
2023-03-06T01:28:03.180Z,4.80
2023-03-06T01:30:33.537Z,5.30
2023-03-06T01:33:04.928Z,5.80
2023-03-06T01:35:35.318Z,6.80
2023-03-06T01:38:05.128Z,3.40
2023-03-06T01:40:36.898Z,3.80
2023-03-06T01:43:32.670Z,5.40
2023-03-06T01:46:22.544Z,6.40
2023-03-06T01:49:06.015Z,4.80
2023-03-06T01:51:58.997Z,5.80
2023-03-06T01:54:42.332Z,4.70
2023-03-06T01:57:38.125Z,5.70
2023-03-06T02:00:45.347Z,5.90
2023-03-06T02:03:24.664Z,4.30
2023-03-06T02:05:53.973Z,6.10
2023-03-06T02:08:23.743Z,3.40
2023-03-06T02:11:29.603Z,4.80
2023-03-06T02:13:58.084Z,6.00
2023-03-06T02:16:30.337Z,5.70
2023-03-06T02:19:01.404Z,5.40
2023-03-06T02:21:36.834Z,5.30
2023-03-06T02:24:36.429Z,5.50
2023-03-06T02:27:06.873Z,6.40
2023-03-06T02:29:35.055Z,4.60
2023-03-06T02:32:05.347Z,6.20
2023-03-06T02:34:39.496Z,5.90
2023-03-06T02:37:10.394Z,6.60
2023-03-06T02:39:49.292Z,4.90
2023-03-06T02:42:23.775Z,6.00
2023-03-06T02:44:54.679Z,5.00
2023-03-06T02:47:22.855Z,6.20
2023-03-06T02:49:50.872Z,5.80
2023-03-06T02:52:19.353Z,3.60
2023-03-06T02:54:49.051Z,3.90
2023-03-06T02:57:17.939Z,5.50
2023-03-06T02:59:48.570Z,6.00
2023-03-06T03:02:17.038Z,6.50
2023-03-06T03:04:45.705Z,6.80
2023-03-06T03:07:14.581Z,6.20
2023-03-06T03:09:43.487Z,6.60
2023-03-06T03:12:12.085Z,7.00
2023-03-06T03:14:40.235Z,6.70
2023-03-06T03:17:09.171Z,5.70
2023-03-06T03:19:37.148Z,6.40
2023-03-06T03:22:05.841Z,4.30
2023-03-06T03:24:33.958Z,5.70
2023-03-06T03:27:02.493Z,6.00
2023-03-06T03:29:30.479Z,7.00
2023-03-06T03:31:59.603Z,7.00
2023-03-06T03:34:29.385Z,7.10
2023-03-06T03:37:00.186Z,6.20
2023-03-06T03:39:28.229Z,6.30
2023-03-06T03:41:56.428Z,6.00
2023-03-06T03:44:25.411Z,6.40
2023-03-06T03:46:53.685Z,5.80
2023-03-06T03:49:22.930Z,5.10
2023-03-06T03:51:52.134Z,5.50
2023-03-06T03:54:20.938Z,5.80
2023-03-06T03:56:49.756Z,4.70
2023-03-06T03:59:23.818Z,5.70
2023-03-06T04:02:06.512Z,6.20
2023-03-06T04:04:38.881Z,6.30
2023-03-06T04:07:07.634Z,8.30
2023-03-06T04:09:36.073Z,7.20
2023-03-06T04:12:05.598Z,4.20
2023-03-06T04:14:35.200Z,7.10
2023-03-06T04:17:04.460Z,7.70
2023-03-06T04:19:32.759Z,7.80
2023-03-06T04:22:02.117Z,6.90
2023-03-06T04:24:31.857Z,7.20
2023-03-06T04:27:00.174Z,7.50
2023-03-06T04:29:29.829Z,7.50
2023-03-06T04:31:58.225Z,7.60
2023-03-06T04:34:26.386Z,7.70
2023-03-06T04:36:54.633Z,9.10
2023-03-06T04:41:50.854Z,7.40
2023-03-06T04:44:18.879Z,7.60
2023-03-06T04:46:49.579Z,7.60
2023-03-06T04:49:17.850Z,7.60
2023-03-06T04:51:45.964Z,7.20
2023-03-06T04:54:14.645Z,8.90
2023-03-06T04:59:11.111Z,7.50
2023-03-06T05:01:39.736Z,6.80
2023-03-06T05:04:07.968Z,7.50
2023-03-06T05:06:37.200Z,7.90
2023-03-06T05:09:05.446Z,6.90
2023-03-06T05:11:34.034Z,17.00
2023-03-06T05:14:03.255Z,14.10
2023-03-06T05:16:31.306Z,20.00
2023-03-06T05:18:59.460Z,14.40
2023-03-06T05:23:55.960Z,8.60
2023-03-06T05:26:26.819Z,5.10
2023-03-06T05:28:54.860Z,7.00
2023-03-06T05:31:23.162Z,10.30
2023-03-06T05:33:51.478Z,9.30
2023-03-06T05:36:19.558Z,9.00
2023-03-06T05:38:47.531Z,10.80
2023-03-06T05:43:47.626Z,7.60
2023-03-06T05:46:15.887Z,6.10
2023-03-06T05:48:46.811Z,10.30
2023-03-06T05:51:15.237Z,8.10
2023-03-06T05:53:44.530Z,5.40
2023-03-06T05:56:14.807Z,5.40
2023-03-06T05:58:45.774Z,7.10
2023-03-06T06:01:18.409Z,6.80
2023-03-06T06:03:48.627Z,4.20
2023-03-06T06:06:17.523Z,6.60
2023-03-06T06:08:45.840Z,6.40
2023-03-06T06:11:15.407Z,8.00
2023-03-06T06:13:48.104Z,9.00
2023-03-06T06:16:16.617Z,7.00
2023-03-06T06:19:17.911Z,5.90
2023-03-06T06:21:48.605Z,7.50
2023-03-06T06:24:20.051Z,5.80
2023-03-06T06:26:59.011Z,6.80
2023-03-06T06:29:29.636Z,6.50
2023-03-06T06:32:00.617Z,6.40
2023-03-06T06:34:39.091Z,6.60
2023-03-06T06:37:11.754Z,5.10
2023-03-06T06:40:13.478Z,6.20
2023-03-06T06:42:43.043Z,6.80
2023-03-06T06:45:12.404Z,6.30
2023-03-06T06:48:00.666Z,6.50
2023-03-06T06:50:30.197Z,5.40
2023-03-06T06:52:59.924Z,7.00
2023-03-06T06:55:28.390Z,6.00
2023-03-06T06:57:56.836Z,8.10
2023-03-06T07:00:27.204Z,4.80
2023-03-06T07:02:55.360Z,4.30
2023-03-06T07:05:26.596Z,7.10
2023-03-06T07:07:55.020Z,4.20
2023-03-06T07:10:24.851Z,5.40
2023-03-06T07:12:54.117Z,4.60
2023-03-06T07:15:30.356Z,5.60
2023-03-06T07:18:01.300Z,7.50
2023-03-06T07:20:31.340Z,6.50
2023-03-06T07:22:59.709Z,7.00
2023-03-06T07:28:21.570Z,6.30
2023-03-06T07:30:54.255Z,3.40
2023-03-06T07:33:22.726Z,6.10
2023-03-06T07:35:50.926Z,5.50
2023-03-06T07:38:20.648Z,7.30
2023-03-06T07:40:53.116Z,5.50
2023-03-06T07:43:21.212Z,5.40
2023-03-06T07:46:00.373Z,7.90
2023-03-06T07:48:28.594Z,5.70
2023-03-06T07:51:09.576Z,5.30
2023-03-06T07:53:37.952Z,5.00
2023-03-06T07:56:11.131Z,6.10
2023-03-06T07:58:44.898Z,6.00
2023-03-06T08:01:19.143Z,6.10
2023-03-06T08:03:49.419Z,6.50
2023-03-06T08:06:25.955Z,8.40
2023-03-06T08:08:55.439Z,8.30
2023-03-06T08:11:29.887Z,7.90
2023-03-06T08:13:59.575Z,5.30
2023-03-06T08:16:30.420Z,6.80
2023-03-06T08:19:02.621Z,7.20
2023-03-06T08:21:32.066Z,5.30
2023-03-06T08:24:04.763Z,8.10
2023-03-06T08:26:34.612Z,6.80
2023-03-06T08:29:13.063Z,5.20
2023-03-06T08:32:00.036Z,7.20
2023-03-06T08:34:43.328Z,6.40
2023-03-06T08:37:26.843Z,4.70
2023-03-06T08:40:06.566Z,6.60
2023-03-06T08:42:35.871Z,7.10
2023-03-06T08:45:06.735Z,5.40
2023-03-06T08:47:41.464Z,8.50
2023-03-06T08:50:11.601Z,6.90
2023-03-06T08:52:41.188Z,11.30
2023-03-06T08:55:09.754Z,9.10
2023-03-06T08:57:46.656Z,9.90
2023-03-06T09:00:15.708Z,10.60
2023-03-06T09:02:46.451Z,8.30
2023-03-06T09:05:16.714Z,7.80
2023-03-06T09:07:45.824Z,9.30
2023-03-06T09:10:17.004Z,8.10
2023-03-06T09:12:54.402Z,9.40
2023-03-06T09:15:28.729Z,9.70
2023-03-06T09:17:58.814Z,9.40
2023-03-06T09:20:28.054Z,9.90
2023-03-06T09:22:58.805Z,8.30
2023-03-06T09:25:27.094Z,10.60
2023-03-06T09:28:10.078Z,9.50
2023-03-06T09:30:40.756Z,11.30
2023-03-06T09:33:10.531Z,12.20
2023-03-06T09:35:55.068Z,10.40
2023-03-06T09:38:27.620Z,10.40
2023-03-06T09:41:41.155Z,12.00
2023-03-06T09:44:23.037Z,10.90
2023-03-06T09:46:54.469Z,11.00
2023-03-06T09:50:00.923Z,11.00
2023-03-06T09:53:04.960Z,10.50
2023-03-06T09:55:37.737Z,10.30
2023-03-06T09:58:27.236Z,9.40
2023-03-06T10:01:38.081Z,10.80
2023-03-06T10:04:49.863Z,10.40
2023-03-06T10:07:33.141Z,8.40
2023-03-06T10:10:38.784Z,13.60
2023-03-06T10:13:42.760Z,11.80
2023-03-06T10:16:31.540Z,10.30
2023-03-06T10:19:04.800Z,10.40
2023-03-06T10:22:03.756Z,11.00
2023-03-06T10:24:53.105Z,10.80
2023-03-06T10:27:58.161Z,14.10
2023-03-06T10:30:42.267Z,11.80
2023-03-06T10:33:42.127Z,9.50
2023-03-06T10:36:17.577Z,10.40
2023-03-06T10:38:48.078Z,10.00
2023-03-06T10:41:32.075Z,10.00
2023-03-06T10:44:01.140Z,13.00
2023-03-06T10:46:44.546Z,9.20
2023-03-06T10:49:37.529Z,9.60
2023-03-06T10:52:21.292Z,9.40
2023-03-06T10:54:51.662Z,9.50
2023-03-06T10:57:32.532Z,10.40
2023-03-06T11:00:05.953Z,9.90
2023-03-06T11:02:40.500Z,9.00
2023-03-06T11:05:20.632Z,8.70
2023-03-06T11:08:00.923Z,9.90
2023-03-06T11:10:37.106Z,9.00
2023-03-06T11:13:22.381Z,9.70
2023-03-06T11:16:05.646Z,9.70
2023-03-06T11:18:43.552Z,10.30
2023-03-06T11:21:36.756Z,11.30
2023-03-06T11:24:19.140Z,11.00
2023-03-06T11:26:59.180Z,11.60
2023-03-06T11:29:45.138Z,12.70
2023-03-06T11:32:23.454Z,12.20
2023-03-06T11:35:06.498Z,11.20
2023-03-06T11:37:58.661Z,12.90
2023-03-06T11:40:49.317Z,13.30
2023-03-06T11:43:36.353Z,13.20
2023-03-06T11:46:17.541Z,12.30
2023-03-06T11:49:24.206Z,14.00
2023-03-06T11:52:01.329Z,14.30
2023-03-06T11:54:44.207Z,13.40
2023-03-06T11:57:42.440Z,15.20
2023-03-06T12:00:40.575Z,13.00
2023-03-06T12:03:31.662Z,13.80
2023-03-06T12:06:34.780Z,12.90
2023-03-06T12:09:33.112Z,12.60
2023-03-06T12:12:24.364Z,12.90
2023-03-06T12:15:52.612Z,11.60
2023-03-06T12:18:55.989Z,10.10
2023-03-06T12:22:08.985Z,12.00
2023-03-06T12:24:53.547Z,10.50
2023-03-06T12:27:50.252Z,10.30
2023-03-06T12:30:41.034Z,10.60
2023-03-06T12:33:31.610Z,10.70
2023-03-06T12:36:38.822Z,12.10
2023-03-06T12:39:56.356Z,10.80
2023-03-06T12:43:06.307Z,10.90
2023-03-06T12:45:38.789Z,11.80
2023-03-06T12:48:37.047Z,10.60
2023-03-06T12:51:12.940Z,14.80
2023-03-06T12:53:47.365Z,12.70
2023-03-06T12:56:17.860Z,10.80
2023-03-06T12:59:01.824Z,11.50
2023-03-06T13:01:49.313Z,10.00
2023-03-06T13:04:56.607Z,10.70
2023-03-06T13:07:44.277Z,12.60
2023-03-06T13:10:35.883Z,12.10
2023-03-06T13:13:41.158Z,12.20
2023-03-06T13:16:15.862Z,12.30
2023-03-06T13:18:44.313Z,13.60
2023-03-06T13:21:56.485Z,10.90
2023-03-06T13:24:39.770Z,11.40
2023-03-06T13:27:45.455Z,11.40
2023-03-06T13:30:38.516Z,11.50
2023-03-06T13:33:32.396Z,12.60
2023-03-06T13:36:39.811Z,11.90
2023-03-06T13:39:13.014Z,10.20
2023-03-06T13:41:59.717Z,11.00
2023-03-06T13:44:30.584Z,11.90
2023-03-06T13:47:19.226Z,10.60
2023-03-06T13:49:48.345Z,11.60
2023-03-06T13:52:53.692Z,9.30
2023-03-06T13:56:07.830Z,11.50
2023-03-06T13:59:01.301Z,11.80
2023-03-06T14:01:39.428Z,10.70
2023-03-06T14:04:41.735Z,10.10
2023-03-06T14:07:24.123Z,11.00
2023-03-06T14:10:13.206Z,9.70
2023-03-06T14:12:53.927Z,10.30
2023-03-06T14:15:50.011Z,10.30
2023-03-06T14:18:18.395Z,10.10
2023-03-06T14:21:12.960Z,10.50
2023-03-06T14:23:44.483Z,14.00
2023-03-06T14:26:24.873Z,11.40
2023-03-06T14:28:59.006Z,13.10
2023-03-06T14:31:34.088Z,10.70
2023-03-06T14:34:19.611Z,12.50
2023-03-06T14:36:51.174Z,12.50
2023-03-06T14:39:42.766Z,10.90
2023-03-06T14:42:24.565Z,11.60
2023-03-06T14:45:05.718Z,11.60
2023-03-06T14:47:36.285Z,13.90
2023-03-06T14:50:29.715Z,10.90
2023-03-06T14:53:14.497Z,12.60
2023-03-06T14:56:07.285Z,11.60
2023-03-06T15:22:50.279Z,11.10
2023-03-06T15:25:31.762Z,13.30
2023-03-06T15:28:19.862Z,13.30
2023-03-06T15:31:10.668Z,12.30
2023-03-06T15:33:39.088Z,15.60
2023-03-06T15:36:29.087Z,15.40
2023-03-06T15:39:01.923Z,14.00
2023-03-06T15:44:14.594Z,12.30
2023-03-06T15:46:42.778Z,18.30
2023-03-06T15:49:16.702Z,14.50
2023-03-06T15:51:54.686Z,13.30
2023-03-06T15:54:24.896Z,14.30
2023-03-06T15:56:53.794Z,12.80
2023-03-06T15:59:32.990Z,12.60
2023-03-06T16:02:17.181Z,13.10
2023-03-06T16:04:47.987Z,11.60
2023-03-06T16:07:17.027Z,13.20
2023-03-06T16:09:45.290Z,12.90
2023-03-06T16:12:17.787Z,12.80
2023-03-06T16:14:49.226Z,13.40
2023-03-06T16:17:17.723Z,14.20
2023-03-06T16:19:45.971Z,15.60
2023-03-06T16:22:16.830Z,18.60
2023-03-06T16:24:45.691Z,17.00
2023-03-06T16:27:22.936Z,17.30
2023-03-06T16:29:52.996Z,17.70
2023-03-06T16:32:21.291Z,16.60
2023-03-06T16:34:49.777Z,15.40
2023-03-06T16:37:18.339Z,16.60
2023-03-06T16:39:46.544Z,16.80
2023-03-06T16:42:17.060Z,16.90
2023-03-06T16:44:45.932Z,16.40
2023-03-06T16:47:14.016Z,17.90
2023-03-06T16:49:42.233Z,22.60
2023-03-06T16:52:11.019Z,28.30
2023-03-06T16:54:40.305Z,27.20
2023-03-06T16:57:15.573Z,28.50
2023-03-06T16:59:44.030Z,30.50
2023-03-06T17:02:14.394Z,32.60
2023-03-06T17:04:42.609Z,27.40
2023-03-06T17:07:10.826Z,25.50
2023-03-06T17:09:39.235Z,26.20
2023-03-06T17:12:09.615Z,23.20
2023-03-06T17:14:37.969Z,23.00
2023-03-06T17:17:06.357Z,21.50
2023-03-06T17:19:35.104Z,22.00
2023-03-06T17:22:16.279Z,22.20
2023-03-06T17:24:49.274Z,25.20
2023-03-06T17:27:21.942Z,23.30
2023-03-06T17:29:51.193Z,30.20
2023-03-06T17:32:19.387Z,30.00
2023-03-06T17:34:47.650Z,50.10
2023-03-06T17:37:15.826Z,67.00
2023-03-06T17:39:43.995Z,54.70
2023-03-06T17:42:12.266Z,49.40
2023-03-06T17:44:40.664Z,45.60
2023-03-06T17:47:10.939Z,38.70
2023-03-06T17:49:39.248Z,30.70
2023-03-06T17:52:09.074Z,26.30
2023-03-06T17:54:37.091Z,23.40
2023-03-06T17:57:09.886Z,20.90
2023-03-06T17:59:46.292Z,20.80
2023-03-06T18:02:15.449Z,21.90
2023-03-06T18:04:43.800Z,21.20
2023-03-06T18:07:13.581Z,21.70
2023-03-06T18:09:42.524Z,36.60
2023-03-06T18:12:12.124Z,72.40
2023-03-06T18:14:42.889Z,73.20
2023-03-06T18:17:10.939Z,36.60
2023-03-06T18:19:39.124Z,34.40
2023-03-06T18:22:08.531Z,32.50
2023-03-06T18:24:39.291Z,33.10
2023-03-06T18:27:07.369Z,38.50
2023-03-06T18:29:35.440Z,30.60
2023-03-06T18:32:06.728Z,33.30
2023-03-06T18:34:38.501Z,34.10
2023-03-06T18:37:06.785Z,33.60
2023-03-06T18:39:34.841Z,32.80
2023-03-06T18:42:06.711Z,38.80
2023-03-06T18:44:34.913Z,47.10
2023-03-06T18:47:04.850Z,53.80
2023-03-06T18:49:32.952Z,49.40
2023-03-06T18:52:01.202Z,46.30
2023-03-06T18:54:29.815Z,45.40
2023-03-06T18:56:58.534Z,44.60
2023-03-06T18:59:30.111Z,41.80
2023-03-06T19:01:59.077Z,40.30
2023-03-06T19:04:27.728Z,39.80
2023-03-06T19:06:56.602Z,40.40
2023-03-06T19:09:25.712Z,39.00
2023-03-06T19:11:54.967Z,43.80
2023-03-06T19:14:24.624Z,42.20
2023-03-06T19:16:53.027Z,39.60
2023-03-06T19:19:25.701Z,43.40
2023-03-06T19:21:57.566Z,38.00
2023-03-06T19:24:30.832Z,36.00
2023-03-06T19:26:59.299Z,34.90
2023-03-06T19:29:28.079Z,34.10
2023-03-06T19:31:59.062Z,33.90
2023-03-06T19:34:34.965Z,37.00
2023-03-06T19:37:03.987Z,36.00
2023-03-06T19:39:32.237Z,32.00
2023-03-06T19:42:00.449Z,37.70
2023-03-06T19:44:28.814Z,36.60
2023-03-06T19:46:57.251Z,35.70
2023-03-06T19:49:27.947Z,35.00
2023-03-06T19:51:56.204Z,32.60
2023-03-06T19:54:26.312Z,47.60
2023-03-06T19:56:54.411Z,45.30
2023-03-06T19:59:22.459Z,43.30
2023-03-06T20:01:50.621Z,40.30
2023-03-06T20:04:19.067Z,38.40
2023-03-06T20:06:50.114Z,36.40
2023-03-06T20:09:19.013Z,38.80
2023-03-06T20:11:49.053Z,42.00
2023-03-06T20:14:18.580Z,45.50
2023-03-06T20:16:47.023Z,49.10
2023-03-06T20:19:15.544Z,47.70
2023-03-06T20:21:48.024Z,58.80
2023-03-06T20:24:18.310Z,56.60
2023-03-06T20:26:49.209Z,41.80
2023-03-06T20:29:18.028Z,37.80
2023-03-06T20:31:46.142Z,33.90
2023-03-06T20:34:14.385Z,29.80
2023-03-06T20:36:42.392Z,30.70
2023-03-06T20:39:17.181Z,31.90
2023-03-06T20:41:46.265Z,30.50
2023-03-06T20:44:19.437Z,29.30
2023-03-06T20:46:47.617Z,27.00
2023-03-06T20:49:15.881Z,28.50
2023-03-06T20:51:47.019Z,24.00
2023-03-06T20:54:16.489Z,24.70
2023-03-06T20:56:48.700Z,28.10
2023-03-06T20:59:19.762Z,29.70
2023-03-06T21:01:48.563Z,33.00
2023-03-06T21:04:16.889Z,32.90
2023-03-06T21:06:45.849Z,34.90
2023-03-06T21:09:16.852Z,29.40
2023-03-06T21:11:45.515Z,32.70
2023-03-06T21:14:14.658Z,27.60
2023-03-06T21:16:45.200Z,24.80
2023-03-06T21:19:14.614Z,23.30
2023-03-06T21:21:42.834Z,23.40
2023-03-06T21:24:10.884Z,23.70
2023-03-06T21:26:39.246Z,18.90
2023-03-06T21:29:07.895Z,24.60
2023-03-06T21:31:36.224Z,21.00
2023-03-06T21:34:05.864Z,22.00
2023-03-06T21:36:34.100Z,18.60
2023-03-06T21:39:05.618Z,19.40
2023-03-06T21:41:35.177Z,19.50
2023-03-06T21:44:05.591Z,18.40
2023-03-06T21:46:35.096Z,16.80
2023-03-06T21:49:05.833Z,19.10
2023-03-06T21:51:34.739Z,19.10
2023-03-06T21:54:05.038Z,17.80
2023-03-06T21:56:35.633Z,16.20
2023-03-06T21:59:04.711Z,16.60
2023-03-06T22:01:32.861Z,16.10
2023-03-06T22:04:02.372Z,12.40
2023-03-06T22:06:32.524Z,12.60
2023-03-06T22:09:01.090Z,14.40
2023-03-06T22:11:30.989Z,13.60
2023-03-06T22:13:59.638Z,15.30
2023-03-06T22:16:28.323Z,13.60
2023-03-06T22:18:59.631Z,12.60
2023-03-06T22:21:27.700Z,13.80
2023-03-06T22:23:58.047Z,14.70
2023-03-06T22:26:28.413Z,13.40
2023-03-06T22:28:56.722Z,13.50
2023-03-06T22:31:28.943Z,14.20
2023-03-06T22:34:01.131Z,14.20
2023-03-06T22:36:31.384Z,15.20
2023-03-06T22:39:04.081Z,14.70
2023-03-06T22:41:33.080Z,13.80
2023-03-06T22:44:03.554Z,15.40
2023-03-06T22:46:32.422Z,11.20
2023-03-06T22:49:01.540Z,14.00
2023-03-06T22:51:31.850Z,13.70
2023-03-06T22:54:05.231Z,11.60
2023-03-06T22:56:33.633Z,13.10
2023-03-06T22:59:02.111Z,14.20
2023-03-06T23:01:33.669Z,13.00
2023-03-06T23:04:07.765Z,15.50
2023-03-06T23:06:40.678Z,15.50
2023-03-06T23:09:20.014Z,15.00
2023-03-06T23:12:08.464Z,15.60
2023-03-06T23:14:55.035Z,16.60
2023-03-06T23:17:41.205Z,14.60
2023-03-06T23:20:29.429Z,14.60
2023-03-06T23:23:23.329Z,15.20
2023-03-06T23:25:52.406Z,16.60
2023-03-06T23:28:20.622Z,14.40
2023-03-06T23:30:48.623Z,16.40
2023-03-06T23:33:17.120Z,17.40
2023-03-06T23:35:46.108Z,16.10
2023-03-06T23:38:14.190Z,16.00
2023-03-06T23:40:43.508Z,17.70
2023-03-06T23:43:11.549Z,15.50
2023-03-06T23:45:41.048Z,16.20
2023-03-06T23:48:10.305Z,16.60
2023-03-06T23:50:40.554Z,17.30
2023-03-06T23:53:08.561Z,17.20
2023-03-06T23:58:11.254Z,18.50
